createdAt,value
2018-03-11T00:00:50.901Z,7.30
2018-03-11T00:03:18.770Z,7.30
2018-03-11T00:05:47.650Z,7.30
2018-03-11T00:08:16.301Z,7.40
2018-03-11T00:10:44.166Z,7.40
2018-03-11T00:13:12.099Z,7.40
2018-03-11T00:15:40.002Z,7.50
2018-03-11T00:18:07.937Z,7.50
2018-03-11T00:20:35.805Z,7.50
2018-03-11T00:23:03.735Z,7.50
2018-03-11T00:25:31.605Z,7.40
2018-03-11T00:28:00.303Z,7.10
2018-03-11T00:30:28.954Z,7.00
2018-03-11T00:32:56.873Z,7.00
2018-03-11T00:35:24.776Z,6.80
2018-03-11T00:37:52.702Z,6.70
2018-03-11T00:40:20.884Z,6.50
2018-03-11T00:42:48.804Z,6.30
2018-03-11T00:45:16.665Z,6.20
2018-03-11T00:47:44.597Z,6.10
2018-03-11T00:50:12.463Z,5.90
2018-03-11T00:52:40.381Z,5.80
2018-03-11T00:55:08.257Z,5.80
2018-03-11T00:57:36.176Z,5.70
2018-03-11T01:00:04.172Z,5.60
2018-03-11T01:02:32.088Z,5.60
2018-03-11T01:05:00.728Z,5.50
2018-03-11T01:07:28.658Z,5.40
2018-03-11T01:09:56.526Z,5.50
2018-03-11T01:12:24.413Z,5.40
2018-03-11T01:14:52.336Z,5.30
2018-03-11T01:17:20.218Z,5.20
2018-03-11T01:19:48.917Z,5.10
2018-03-11T01:22:16.796Z,5.10
2018-03-11T01:24:44.714Z,5.10
2018-03-11T01:27:12.593Z,5.10
2018-03-11T01:29:40.511Z,5.00
2018-03-11T01:32:08.402Z,5.00
2018-03-11T01:34:36.322Z,5.00
2018-03-11T01:37:04.217Z,4.90
2018-03-11T01:39:32.135Z,5.00
2018-03-11T01:42:00.010Z,4.90
2018-03-11T01:44:28.694Z,4.80
2018-03-11T01:46:56.574Z,4.80
2018-03-11T01:49:24.500Z,4.80
2018-03-11T01:51:52.403Z,4.80
2018-03-11T01:54:20.331Z,4.80
2018-03-11T01:56:49.351Z,4.70
2018-03-11T01:59:17.272Z,4.70
2018-03-11T02:01:45.155Z,4.70
2018-03-11T02:04:13.026Z,4.70
2018-03-11T02:06:40.946Z,4.70
2018-03-11T02:09:08.828Z,4.70
2018-03-11T02:11:36.746Z,4.60
2018-03-11T02:14:04.655Z,4.60
2018-03-11T02:16:33.358Z,4.50
2018-03-11T02:19:01.226Z,4.50
2018-03-11T02:21:29.154Z,4.50
2018-03-11T02:23:57.034Z,4.60
2018-03-11T02:26:25.020Z,4.70
2018-03-11T02:28:53.671Z,4.80
2018-03-11T02:31:21.600Z,4.80
2018-03-11T02:33:49.475Z,4.80
2018-03-11T02:36:17.403Z,4.80
2018-03-11T02:38:45.270Z,4.80
2018-03-11T02:41:13.967Z,5.00
2018-03-11T02:43:42.603Z,5.10
2018-03-11T02:46:10.512Z,5.10
2018-03-11T02:48:39.176Z,5.20
2018-03-11T02:51:07.144Z,5.20
2018-03-11T02:53:35.003Z,5.30
2018-03-11T02:56:03.077Z,5.30
2018-03-11T02:58:31.011Z,5.30
2018-03-11T03:00:58.894Z,5.40
2018-03-11T03:03:26.821Z,5.50
2018-03-11T03:05:55.453Z,5.70
2018-03-11T03:08:23.371Z,5.70
2018-03-11T03:10:52.026Z,6.00
2018-03-11T03:13:19.956Z,6.00
2018-03-11T03:15:47.824Z,6.10
2018-03-11T03:18:15.762Z,6.10
2018-03-11T03:20:44.421Z,6.20
2018-03-11T03:23:12.361Z,6.20
2018-03-11T03:25:43.964Z,6.30
2018-03-11T03:28:11.904Z,6.30
2018-03-11T03:30:39.775Z,6.30
2018-03-11T03:33:07.685Z,6.40
2018-03-11T03:35:35.618Z,6.40
2018-03-11T03:38:03.547Z,6.50
2018-03-11T03:40:31.474Z,6.50
2018-03-11T03:42:59.414Z,6.50
2018-03-11T03:45:27.321Z,6.50
2018-03-11T03:47:55.244Z,6.60
2018-03-11T03:50:23.164Z,6.80
2018-03-11T03:52:51.097Z,6.80
2018-03-11T03:55:26.579Z,6.90
2018-03-11T03:57:54.554Z,7.10
2018-03-11T04:00:22.426Z,8.00
2018-03-11T04:02:50.352Z,8.00
2018-03-11T04:05:18.277Z,7.80
2018-03-11T04:07:46.151Z,7.70
2018-03-11T04:10:14.081Z,7.70
2018-03-11T04:12:41.953Z,7.60
2018-03-11T04:15:09.916Z,7.60
2018-03-11T04:17:37.800Z,7.70
2018-03-11T04:20:06.504Z,7.70
2018-03-11T04:22:34.383Z,7.60
2018-03-11T04:25:03.273Z,7.70
2018-03-11T04:27:31.147Z,7.60
2018-03-11T04:29:59.063Z,7.70
2018-03-11T04:32:26.983Z,7.60
2018-03-11T04:34:54.955Z,7.50
2018-03-11T04:37:22.829Z,7.50
2018-03-11T04:39:50.759Z,7.60
2018-03-11T04:42:19.404Z,7.60
2018-03-11T04:44:47.320Z,7.60
2018-03-11T04:47:15.200Z,7.60
2018-03-11T04:49:43.145Z,7.50
2018-03-11T04:52:11.025Z,7.50
2018-03-11T04:54:38.949Z,7.40
2018-03-11T04:57:06.883Z,7.30
2018-03-11T04:59:34.764Z,7.20
2018-03-11T05:02:02.683Z,7.00
2018-03-11T05:04:30.592Z,6.80
2018-03-11T05:06:58.517Z,6.60
2018-03-11T05:09:26.384Z,6.50
2018-03-11T05:11:54.299Z,6.30
2018-03-11T05:14:22.186Z,6.30
2018-03-11T05:16:56.107Z,6.20
2018-03-11T05:19:24.044Z,6.20
2018-03-11T05:21:51.972Z,6.10
2018-03-11T05:24:19.872Z,6.10
2018-03-11T05:26:47.812Z,6.20
2018-03-11T05:29:15.698Z,6.20
2018-03-11T05:31:43.633Z,6.10
2018-03-11T05:34:11.515Z,6.20
2018-03-11T05:36:39.396Z,6.10
2018-03-11T05:39:07.347Z,6.00
2018-03-11T05:41:35.226Z,5.90
2018-03-11T05:44:03.164Z,5.90
2018-03-11T05:46:31.148Z,5.90
2018-03-11T05:48:59.068Z,5.90
2018-03-11T05:51:26.939Z,6.00
2018-03-11T05:53:54.861Z,5.90
2018-03-11T05:56:22.739Z,5.70
2018-03-11T05:58:50.670Z,5.70
2018-03-11T06:01:18.545Z,5.70
2018-03-11T06:03:46.472Z,5.80
2018-03-11T06:06:15.124Z,5.90
2018-03-11T06:08:43.057Z,5.90
2018-03-11T06:11:10.943Z,6.00
2018-03-11T06:13:38.881Z,6.00
2018-03-11T06:16:07.764Z,5.80
2018-03-11T06:18:35.757Z,6.30
2018-03-11T06:21:03.626Z,6.30
2018-03-11T06:23:31.566Z,6.80
2018-03-11T06:25:59.458Z,7.60
2018-03-11T06:28:27.340Z,7.90
2018-03-11T06:30:55.280Z,8.40
2018-03-11T06:33:23.174Z,8.60
2018-03-11T06:35:51.113Z,8.90
2018-03-11T06:38:19.022Z,9.10
2018-03-11T06:40:46.949Z,9.10
2018-03-11T06:43:14.814Z,9.20
2018-03-11T06:45:42.797Z,9.30
2018-03-11T06:48:10.671Z,9.40
2018-03-11T06:50:38.603Z,9.50
2018-03-11T06:53:06.469Z,9.50
2018-03-11T06:55:34.392Z,9.60
2018-03-11T06:58:02.277Z,9.70
2018-03-11T07:00:30.225Z,9.70
2018-03-11T07:02:58.877Z,9.80
2018-03-11T07:05:30.579Z,9.80
2018-03-11T07:08:01.649Z,9.90
2018-03-11T07:10:29.747Z,10.00
2018-03-11T07:12:58.393Z,10.20
2018-03-11T07:15:26.283Z,10.20
2018-03-11T07:17:54.212Z,10.20
2018-03-11T07:20:22.095Z,10.20
2018-03-11T07:22:50.023Z,10.30
2018-03-11T07:25:17.919Z,10.30
2018-03-11T07:27:45.854Z,10.30
2018-03-11T07:30:13.740Z,10.20
2018-03-11T07:32:41.684Z,10.20
2018-03-11T07:35:14.084Z,10.20
2018-03-11T07:37:42.012Z,10.20
2018-03-11T07:40:09.898Z,10.20
2018-03-11T07:42:38.590Z,10.40
2018-03-11T07:45:07.238Z,10.60
2018-03-11T07:47:35.200Z,10.50
2018-03-11T07:50:03.093Z,10.70
2018-03-11T07:52:31.096Z,10.70
2018-03-11T07:54:59.066Z,10.70
2018-03-11T07:57:27.002Z,10.70
2018-03-11T07:59:55.688Z,10.70
2018-03-11T08:02:23.628Z,10.70
2018-03-11T08:04:52.157Z,10.80
2018-03-11T08:07:20.967Z,10.80
2018-03-11T08:09:48.945Z,10.80
2018-03-11T08:12:16.832Z,10.90
2018-03-11T08:14:44.780Z,10.90
2018-03-11T08:17:12.727Z,10.90
2018-03-11T08:19:40.737Z,10.80
2018-03-11T08:22:08.631Z,10.80
2018-03-11T08:24:36.586Z,10.80
2018-03-11T08:27:05.713Z,10.80
2018-03-11T08:29:33.640Z,11.00
2018-03-11T08:32:01.529Z,10.90
2018-03-11T08:34:29.491Z,10.90
2018-03-11T08:36:57.375Z,10.90
2018-03-11T08:39:25.311Z,11.00
2018-03-11T08:41:53.207Z,11.10
2018-03-11T08:44:21.946Z,11.10
2018-03-11T08:46:49.834Z,11.10
2018-03-11T08:49:17.875Z,11.10
2018-03-11T08:51:45.761Z,11.10
2018-03-11T08:54:13.701Z,11.00
2018-03-11T08:56:45.965Z,11.10
2018-03-11T08:59:13.911Z,11.10
2018-03-11T09:01:43.127Z,11.10
2018-03-11T09:04:11.070Z,11.20
2018-03-11T09:06:38.965Z,11.30
2018-03-11T09:09:06.868Z,11.50
2018-03-11T09:11:34.800Z,11.70
2018-03-11T09:14:02.697Z,11.90
2018-03-11T09:16:30.645Z,11.90
2018-03-11T09:18:59.491Z,12.00
2018-03-11T09:21:27.425Z,12.10
2018-03-11T09:23:56.085Z,12.40
2018-03-11T09:26:24.107Z,12.40
2018-03-11T09:28:51.999Z,12.50
2018-03-11T09:31:19.947Z,12.70
2018-03-11T09:33:47.810Z,13.00
2018-03-11T09:36:15.744Z,13.10
2018-03-11T09:38:43.789Z,13.40
2018-03-11T09:41:11.738Z,13.60
2018-03-11T09:43:40.116Z,13.60
2018-03-11T09:46:08.032Z,14.00
2018-03-11T09:48:35.912Z,14.60
2018-03-11T09:51:04.375Z,14.80
2018-03-11T09:53:33.098Z,14.90
2018-03-11T09:56:02.237Z,14.90
2018-03-11T09:58:30.135Z,14.80
2018-03-11T10:00:58.953Z,14.70
2018-03-11T10:03:27.218Z,14.60
2018-03-11T10:05:55.853Z,14.40
2018-03-11T10:08:23.975Z,14.30
2018-03-11T10:10:52.235Z,14.20
2018-03-11T10:13:20.874Z,14.20
2018-03-11T10:15:49.685Z,14.10
2018-03-11T10:18:17.608Z,14.00
2018-03-11T10:20:46.243Z,13.90
2018-03-11T10:23:14.164Z,13.90
2018-03-11T10:25:43.014Z,13.90
2018-03-11T10:28:10.958Z,13.80
2018-03-11T10:30:38.848Z,13.80
2018-03-11T10:33:06.774Z,13.90
2018-03-11T10:35:34.998Z,14.00
2018-03-11T10:38:03.836Z,14.00
2018-03-11T10:40:32.737Z,14.00
2018-03-11T10:43:01.697Z,14.00
2018-03-11T10:45:29.574Z,14.10
2018-03-11T10:47:58.047Z,14.10
2018-03-11T10:50:26.412Z,14.10
2018-03-11T10:52:54.745Z,14.10
2018-03-11T10:55:24.712Z,14.00
2018-03-11T10:57:52.874Z,14.00
2018-03-11T11:00:23.035Z,13.90
2018-03-11T11:02:52.065Z,13.90
2018-03-11T11:05:20.304Z,13.90
2018-03-11T11:07:48.234Z,13.80
2018-03-11T11:10:16.561Z,13.80
2018-03-11T11:12:44.957Z,13.70
2018-03-11T11:15:14.623Z,13.80
2018-03-11T11:17:43.369Z,13.80
2018-03-11T11:20:12.057Z,13.70
2018-03-11T11:22:40.844Z,13.80
2018-03-11T11:25:09.468Z,13.70
2018-03-11T11:27:38.249Z,13.70
2018-03-11T11:30:07.373Z,13.80
2018-03-11T11:32:35.644Z,13.70
2018-03-11T11:35:05.036Z,13.60
2018-03-11T11:37:33.483Z,13.60
2018-03-11T11:40:01.713Z,13.60
2018-03-11T11:42:29.971Z,13.70
2018-03-11T11:44:58.961Z,13.70
2018-03-11T11:47:28.577Z,13.70
2018-03-11T11:49:58.885Z,13.70
2018-03-11T11:52:28.170Z,13.60
2018-03-11T11:54:56.723Z,13.60
2018-03-11T11:57:25.430Z,13.60
2018-03-11T11:59:54.289Z,13.50
2018-03-11T12:02:23.465Z,13.50
2018-03-11T12:04:51.775Z,13.50
2018-03-11T12:07:20.570Z,13.40
2018-03-11T12:09:49.227Z,13.50
2018-03-11T12:12:18.066Z,13.40
2018-03-11T12:14:48.471Z,13.50
2018-03-11T12:17:17.370Z,13.60
2018-03-11T12:19:46.459Z,13.50
2018-03-11T12:22:15.282Z,13.40
2018-03-11T12:24:44.144Z,13.40
2018-03-11T12:27:13.261Z,13.40
2018-03-11T12:29:42.083Z,13.30
2018-03-11T12:32:11.893Z,13.20
2018-03-11T12:34:40.766Z,13.20
2018-03-11T12:37:09.933Z,13.10
2018-03-11T12:39:43.918Z,13.00
2018-03-11T12:42:15.146Z,13.00
2018-03-11T12:44:46.864Z,12.90
2018-03-11T12:47:16.609Z,12.90
2018-03-11T12:49:48.434Z,13.00
2018-03-11T12:52:19.299Z,13.10
2018-03-11T12:54:49.345Z,13.10
2018-03-11T12:57:18.457Z,13.30
2018-03-11T12:59:52.803Z,13.40
2018-03-11T13:02:22.037Z,13.30
2018-03-11T13:04:53.933Z,13.50
2018-03-11T13:07:24.156Z,13.50
2018-03-11T13:09:53.525Z,13.60
2018-03-11T13:12:22.494Z,13.60
2018-03-11T13:14:51.088Z,13.60
2018-03-11T13:17:22.056Z,13.70
2018-03-11T13:19:57.317Z,13.80
2018-03-11T13:22:26.984Z,13.90
2018-03-11T13:24:55.619Z,13.80
2018-03-11T13:27:25.617Z,13.80
2018-03-11T13:29:55.201Z,13.80
2018-03-11T13:32:35.570Z,13.80
2018-03-11T13:35:03.819Z,13.70
2018-03-11T13:37:33.181Z,13.70
2018-03-11T13:40:13.065Z,13.70
2018-03-11T13:42:41.753Z,13.80
2018-03-11T13:45:21.734Z,13.90
2018-03-11T13:47:49.978Z,13.80
2018-03-11T13:50:19.274Z,13.70
2018-03-11T13:53:02.387Z,13.90
2018-03-11T13:55:34.939Z,14.00
2018-03-11T13:58:16.264Z,14.30
2018-03-11T14:00:44.885Z,14.40
2018-03-11T14:03:13.052Z,14.60
2018-03-11T14:05:41.756Z,14.90
2018-03-11T14:08:11.317Z,15.20
2018-03-11T14:10:39.497Z,15.10
2018-03-11T14:13:07.609Z,15.00
2018-03-11T14:15:35.598Z,14.80
2018-03-11T14:18:03.685Z,14.90
2018-03-11T14:20:32.072Z,15.10
2018-03-11T14:23:01.423Z,15.20
2018-03-11T14:25:30.173Z,15.00
2018-03-11T14:27:59.148Z,14.70
2018-03-11T14:30:28.057Z,14.80
2018-03-11T14:32:56.792Z,14.70
2018-03-11T14:35:25.693Z,14.50
2018-03-11T14:37:55.032Z,14.70
2018-03-11T14:40:23.999Z,14.70
2018-03-11T14:42:52.585Z,14.90
2018-03-11T14:45:20.736Z,14.80
2018-03-11T14:47:48.683Z,14.90
2018-03-11T14:50:16.564Z,14.80
2018-03-11T14:52:44.454Z,14.90
2018-03-11T14:55:12.451Z,14.80
2018-03-11T14:57:41.098Z,14.80
2018-03-11T15:00:09.043Z,14.80
2018-03-11T15:02:36.941Z,14.90
2018-03-11T15:05:04.942Z,14.80
2018-03-11T15:07:33.591Z,14.60
2018-03-11T15:10:03.842Z,14.60
2018-03-11T15:12:32.484Z,14.50
2018-03-11T15:15:04.184Z,14.40
2018-03-11T15:17:32.571Z,14.30
2018-03-11T15:20:00.478Z,14.30
2018-03-11T15:22:28.447Z,14.20
2018-03-11T15:24:58.053Z,14.20
2018-03-11T15:27:25.941Z,14.20
2018-03-11T15:29:55.902Z,14.10
2018-03-11T15:32:25.975Z,14.10
2018-03-11T15:34:58.603Z,14.00
2018-03-11T15:37:27.011Z,14.00
2018-03-11T15:39:54.935Z,14.00
2018-03-11T15:42:23.588Z,14.00
2018-03-11T15:44:51.556Z,14.00
2018-03-11T15:47:19.443Z,13.90
2018-03-11T15:49:47.377Z,13.90
2018-03-11T15:52:16.013Z,13.70
2018-03-11T15:54:44.033Z,13.70
2018-03-11T15:57:11.920Z,13.70
2018-03-11T15:59:39.912Z,13.60
2018-03-11T16:02:07.814Z,13.60
2018-03-11T16:04:36.502Z,13.50
2018-03-11T16:07:04.607Z,13.50
2018-03-11T16:09:34.121Z,13.50
2018-03-11T16:12:03.831Z,13.40
2018-03-11T16:14:34.545Z,13.40
2018-03-11T16:17:05.571Z,13.40
2018-03-11T16:19:38.302Z,13.20
2018-03-11T16:22:10.341Z,13.20
2018-03-11T16:24:39.800Z,13.20
2018-03-11T16:27:10.845Z,13.20
2018-03-11T16:29:39.394Z,13.10
2018-03-11T16:32:07.407Z,13.10
2018-03-11T16:34:36.100Z,12.90
2018-03-11T16:37:04.754Z,12.90
2018-03-11T16:39:32.687Z,12.90
2018-03-11T16:42:00.641Z,13.00
2018-03-11T16:44:28.576Z,12.90
2018-03-11T16:47:00.210Z,12.80
2018-03-11T16:49:28.766Z,12.80
2018-03-11T16:51:57.231Z,12.60
2018-03-11T16:54:27.265Z,12.50
2018-03-11T16:56:57.184Z,12.40
2018-03-11T16:59:25.774Z,12.30
2018-03-11T17:01:53.665Z,12.30
2018-03-11T17:04:21.597Z,12.20
2018-03-11T17:06:49.622Z,12.10
2018-03-11T17:09:17.554Z,12.00
2018-03-11T17:11:46.039Z,12.00
2018-03-11T17:14:13.956Z,11.80
2018-03-11T17:16:41.867Z,11.70
2018-03-11T17:19:09.852Z,11.70
2018-03-11T17:21:37.880Z,11.60
2018-03-11T17:24:05.911Z,11.50
2018-03-11T17:26:33.820Z,11.40
2018-03-11T17:29:02.521Z,11.20
2018-03-11T17:31:30.405Z,11.20
2018-03-11T17:33:58.348Z,11.10
2018-03-11T17:36:28.326Z,10.90
2018-03-11T17:38:56.330Z,10.70
2018-03-11T17:41:24.225Z,10.60
2018-03-11T17:43:53.102Z,10.40
2018-03-11T17:46:21.669Z,10.30
2018-03-11T17:48:50.563Z,10.30
2018-03-11T17:51:19.980Z,10.20
2018-03-11T17:53:48.641Z,10.10
2018-03-11T17:56:16.552Z,10.00
2018-03-11T17:58:44.489Z,9.80
2018-03-11T18:01:12.467Z,9.60
2018-03-11T18:03:41.168Z,9.30
2018-03-11T18:06:09.202Z,9.30
2018-03-11T18:08:38.153Z,9.20
2018-03-11T18:11:06.167Z,9.10
2018-03-11T18:13:34.105Z,9.10
2018-03-11T18:16:02.094Z,9.00
2018-03-11T18:18:29.959Z,8.90
2018-03-11T18:20:57.908Z,8.80
2018-03-11T18:23:25.835Z,8.70
2018-03-11T18:25:53.699Z,8.60
2018-03-11T18:28:21.625Z,8.60
2018-03-11T18:30:49.563Z,8.50
2018-03-11T18:33:17.435Z,8.40
2018-03-11T18:35:45.519Z,8.30
2018-03-11T18:38:13.403Z,8.20
2018-03-11T18:40:41.318Z,8.10
2018-03-11T18:43:09.958Z,8.00
2018-03-11T18:45:38.094Z,8.00
2018-03-11T18:48:06.026Z,8.00
2018-03-11T18:50:33.964Z,7.90
2018-03-11T18:53:01.913Z,7.90
2018-03-11T18:55:30.212Z,7.80
2018-03-11T18:57:58.335Z,7.80
2018-03-11T19:00:27.253Z,7.60
2018-03-11T19:02:55.645Z,7.60
2018-03-11T19:05:27.908Z,7.50
2018-03-11T19:07:57.162Z,7.50
2018-03-11T19:10:26.377Z,7.30
2018-03-11T19:12:54.656Z,7.30
2018-03-11T19:15:23.098Z,7.30
2018-03-11T19:17:51.541Z,7.20
2018-03-11T19:20:22.011Z,7.20
2018-03-11T19:22:49.923Z,7.20
2018-03-11T19:25:18.835Z,7.10
2018-03-11T19:27:46.829Z,7.10
2018-03-11T19:30:15.744Z,7.00
2018-03-11T19:32:44.462Z,7.00
2018-03-11T19:35:13.143Z,6.90
2018-03-11T19:37:41.082Z,6.90
2018-03-11T19:40:08.992Z,6.90
2018-03-11T19:42:36.861Z,6.90
2018-03-11T19:45:05.594Z,6.80
2018-03-11T19:47:33.461Z,6.80
2018-03-11T19:50:01.965Z,6.80
2018-03-11T19:52:29.848Z,6.70
2018-03-11T19:54:57.772Z,6.70
2018-03-11T19:57:25.684Z,6.70
2018-03-11T19:59:53.591Z,6.70
2018-03-11T20:02:21.695Z,6.60
2018-03-11T20:04:49.599Z,6.60
2018-03-11T20:07:17.515Z,6.50
2018-03-11T20:09:45.392Z,6.50
2018-03-11T20:12:14.469Z,6.50
2018-03-11T20:14:42.344Z,6.50
2018-03-11T20:17:10.294Z,6.50
2018-03-11T20:19:38.212Z,6.40
2018-03-11T20:22:06.138Z,6.40
2018-03-11T20:24:34.032Z,6.40
2018-03-11T20:27:01.950Z,6.40
2018-03-11T20:29:29.822Z,6.30
2018-03-11T20:31:58.498Z,6.20
2018-03-11T20:34:26.483Z,6.20
2018-03-11T20:36:54.443Z,6.20
2018-03-11T20:39:22.355Z,6.20
2018-03-11T20:41:50.285Z,6.20
2018-03-11T20:44:18.176Z,6.20
2018-03-11T20:46:50.942Z,6.20
2018-03-11T20:49:23.855Z,6.20
2018-03-11T20:51:51.899Z,6.20
2018-03-11T20:54:20.606Z,6.30
2018-03-11T20:56:48.481Z,6.20
2018-03-11T20:59:16.422Z,6.20
2018-03-11T21:01:44.308Z,6.10
2018-03-11T21:04:13.558Z,6.10
2018-03-11T21:06:41.638Z,6.00
2018-03-11T21:09:09.603Z,6.00
2018-03-11T21:11:37.487Z,6.00
2018-03-11T21:14:05.440Z,6.00
2018-03-11T21:16:33.315Z,6.00
2018-03-11T21:19:01.511Z,5.90
2018-03-11T21:21:29.483Z,5.90
2018-03-11T21:23:57.398Z,5.80
2018-03-11T21:26:25.446Z,5.90
2018-03-11T21:28:55.453Z,5.90
2018-03-11T21:31:23.377Z,5.80
2018-03-11T21:33:51.322Z,5.70
2018-03-11T21:36:27.359Z,5.70
2018-03-11T21:38:55.359Z,5.60
2018-03-11T21:41:24.195Z,5.70
2018-03-11T21:43:53.963Z,5.70
2018-03-11T21:46:26.638Z,5.60
2018-03-11T21:48:56.712Z,5.60
2018-03-11T21:51:28.259Z,5.60
2018-03-11T21:53:57.738Z,5.70
2018-03-11T21:56:25.621Z,5.70
2018-03-11T21:58:53.509Z,5.70
2018-03-11T22:01:21.443Z,5.70
2018-03-11T22:03:49.329Z,5.70
2018-03-11T22:06:17.280Z,5.70
2018-03-11T22:08:45.177Z,5.70
2018-03-11T22:11:13.123Z,5.70
2018-03-11T22:13:41.039Z,5.70
2018-03-11T22:16:08.982Z,5.70
2018-03-11T22:18:36.865Z,5.70
2018-03-11T22:21:05.643Z,5.60
2018-03-11T22:23:33.523Z,5.50
2018-03-11T22:26:01.514Z,5.50
2018-03-11T22:28:29.403Z,5.50
2018-03-11T22:30:57.316Z,5.50
2018-03-11T22:33:25.197Z,5.50
2018-03-11T22:35:53.127Z,5.40
2018-03-11T22:38:21.018Z,5.30
2018-03-11T22:40:48.983Z,5.30
2018-03-11T22:43:16.877Z,5.20
2018-03-11T22:45:48.575Z,5.10
2018-03-11T22:48:19.592Z,5.00
2018-03-11T22:50:53.088Z,4.90
2018-03-11T22:53:24.413Z,4.90
2018-03-11T22:55:56.062Z,4.90
2018-03-11T22:58:27.860Z,4.80
2018-03-11T23:00:58.546Z,4.80
2018-03-11T23:03:29.112Z,4.70
2018-03-11T23:06:01.360Z,4.60
2018-03-11T23:08:31.515Z,4.50
2018-03-11T23:11:02.838Z,4.60
2018-03-11T23:13:35.069Z,4.50
2018-03-11T23:16:07.449Z,4.50
2018-03-11T23:18:50.170Z,4.40
2018-03-11T23:21:21.852Z,4.40
2018-03-11T23:23:52.737Z,4.40
2018-03-11T23:26:24.664Z,4.50
2018-03-11T23:28:55.408Z,4.50
2018-03-11T23:31:25.890Z,4.50
2018-03-11T23:33:58.184Z,4.60
2018-03-11T23:36:29.995Z,4.60
2018-03-11T23:39:01.058Z,4.50
2018-03-11T23:41:29.078Z,4.50
2018-03-11T23:43:56.963Z,4.50
2018-03-11T23:46:24.848Z,4.50
2018-03-11T23:48:52.868Z,4.50
2018-03-11T23:51:20.756Z,4.40
2018-03-11T23:53:48.684Z,4.40
2018-03-11T23:56:16.568Z,4.40
2018-03-11T23:58:44.493Z,4.30
